Hawkesbury, Canada
Current Conditions -  °F | °C
As of 5:00 AM on Friday 19 Dec 2014 (Local Time) from CYMX Reporting Station
Overcast Overcast  
Wind Chill: 16°   Ceiling: 2000
Heat Index: 23°   Visibility: 25mi
Dew Point: 18°   Wind: 6mph
Humidity: 80%   Direction: 330°NNW
Pressure: 30"   Gusts: NA
Location:  45.61°N, 74.61°W
Report Text: CYMX 191000Z 33005KT 25SM OVC020 M05/M08 A3000 RMK SC8 SLP162
Loading
Personal Weather Stations






























Interactive Weather Map New forecast layout! Learn more

10-Day Weather Forecast

Advertisements
Track Severe Weather on mobile